Time;durP1;ratioP1;P1;durP2;ratioP2;P2;SDS_P1;SDS_P2;PMS_P1;PMS_P2;Temp;Humidity;BMP_temperature;BMP_pressure;BME280_temperature;BME280_humidity;BME280_pressure;Samples;Min_cycle;Max_cycle;Signal;HPM_P1;HPM_P2
2021/01/08 00:00:49;;;;;;;13.50;8.13;;;;;;;;;;6222756;23;20031;-86
2021/01/08 00:03:15;;;;;;;15.05;8.38;;;;;;;;;;6222576;23;20024;-85
2021/01/08 00:05:41;;;;;;;13.48;8.25;;;;;;;;;;6221527;23;20028;-85
2021/01/08 00:08:12;;;;;;;14.48;8.07;;;;;;;;;;6221091;23;20036;-85
2021/01/08 00:10:38;;;;;;;14.63;8.13;;;;;;;;;;6223919;23;20024;-85
2021/01/08 00:13:04;;;;;;;13.30;8.05;;;;;;;;;;6248456;23;20054;-85
2021/01/08 00:15:31;;;;;;;15.75;9.30;;;;;;;;;;6225589;23;20024;-87
2021/01/08 00:18:00;;;;;;;16.35;9.85;;;;;;;;;;6224573;23;20059;-86
2021/01/08 00:20:26;;;;;;;15.88;9.27;;;;;;;;;;6248372;23;20024;-85
2021/01/08 00:22:55;;;;;;;11.85;7.78;;;;;;;;;;6224649;23;20040;-85
2021/01/08 00:25:21;;;;;;;13.02;7.45;;;;;;;;;;6224761;23;20024;-85
2021/01/08 00:27:47;;;;;;;15.38;8.15;;;;;;;;;;6223829;23;20091;-85
2021/01/08 00:30:14;;;;;;;11.63;6.97;;;;;;;;;;6224847;23;20072;-85
2021/01/08 00:32:49;;;;;;;14.20;7.35;;;;;;;;;;6222898;23;20043;-85
2021/01/08 00:35:15;;;;;;;11.88;7.10;;;;;;;;;;6225337;23;20034;-86
2021/01/08 00:37:41;;;;;;;14.07;7.30;;;;;;;;;;6226649;23;20024;-86
2021/01/08 00:40:08;;;;;;;13.30;6.75;;;;;;;;;;6228390;23;20024;-85
2021/01/08 00:42:36;;;;;;;11.77;6.88;;;;;;;;;;6234549;23;20028;-84
2021/01/08 00:45:04;;;;;;;13.20;6.78;;;;;;;;;;6235083;23;20208;-84
2021/01/08 00:47:31;;;;;;;12.85;6.68;;;;;;;;;;6233777;23;20039;-84
2021/01/08 00:49:57;;;;;;;12.77;6.32;;;;;;;;;;6229204;23;20029;-84
2021/01/08 00:52:23;;;;;;;12.57;6.85;;;;;;;;;;6221447;23;20071;-84
2021/01/08 00:54:55;;;;;;;13.95;7.22;;;;;;;;;;6222220;23;20028;-84
2021/01/08 00:57:21;;;;;;;15.27;7.22;;;;;;;;;;6219384;23;20032;-83
2021/01/08 00:59:47;;;;;;;12.40;6.60;;;;;;;;;;6218902;23;20469;-84
2021/01/08 01:02:13;;;;;;;15.63;6.78;;;;;;;;;;6220887;23;20025;-84
2021/01/08 01:04:40;;;;;;;13.63;6.93;;;;;;;;;;6221970;23;20043;-84
2021/01/08 01:07:06;;;;;;;16.52;7.43;;;;;;;;;;6234999;23;20036;-84
2021/01/08 01:09:33;;;;;;;12.65;7.03;;;;;;;;;;6235824;23;20091;-85
2021/01/08 01:11:59;;;;;;;15.90;6.68;;;;;;;;;;6237351;23;20036;-85
2021/01/08 01:14:25;;;;;;;14.55;7.03;;;;;;;;;;6236389;23;20039;-85
2021/01/08 01:16:51;;;;;;;12.48;6.40;;;;;;;;;;6239270;22;20040;-85
2021/01/08 01:19:18;;;;;;;14.13;6.55;;;;;;;;;;6222898;23;20358;-85
2021/01/08 01:21:50;;;;;;;12.77;7.07;;;;;;;;;;6221745;23;20035;-85
2021/01/08 01:24:16;;;;;;;14.38;7.00;;;;;;;;;;6224607;23;20036;-87
2021/01/08 01:26:52;;;;;;;14.95;7.32;;;;;;;;;;6223144;23;20043;-86
2021/01/08 01:29:18;;;;;;;12.57;7.57;;;;;;;;;;6223147;23;20032;-85
2021/01/08 01:31:50;;;;;;;11.75;6.70;;;;;;;;;;6224175;23;20039;-86
2021/01/08 01:34:20;;;;;;;12.48;6.90;;;;;;;;;;6226143;23;20029;-85
2021/01/08 01:36:46;;;;;;;11.60;6.47;;;;;;;;;;6239053;22;20029;-85
2021/01/08 01:39:15;;;;;;;10.00;5.38;;;;;;;;;;6240381;23;20064;-86
2021/01/08 01:41:48;;;;;;;10.13;6.30;;;;;;;;;;6229571;23;20176;-86
2021/01/08 01:44:17;;;;;;;10.30;5.82;;;;;;;;;;6222116;23;20039;-85
2021/01/08 01:46:46;;;;;;;10.57;6.45;;;;;;;;;;6225062;23;20032;-88
2021/01/08 01:49:15;;;;;;;12.13;5.82;;;;;;;;;;6240318;22;20056;-85
2021/01/08 01:51:41;;;;;;;9.95;5.75;;;;;;;;;;6240622;22;20012;-86
2021/01/08 01:54:08;;;;;;;10.90;5.93;;;;;;;;;;6239164;22;20040;-85
2021/01/08 01:56:34;;;;;;;8.13;4.93;;;;;;;;;;6240535;22;20009;-85
2021/01/08 01:59:03;;;;;;;7.97;5.05;;;;;;;;;;6231285;23;20029;-85
2021/01/08 02:01:29;;;;;;;8.80;5.38;;;;;;;;;;6223118;23;20023;-85
2021/01/08 02:07:20;;;;;;;10.15;5.63;;;;;;;;;;6220985;23;20015;-85
2021/01/08 02:09:46;;;;;;;8.68;5.30;;;;;;;;;;6220695;23;20095;-85
2021/01/08 02:12:13;;;;;;;9.43;5.35;;;;;;;;;;6219705;23;20028;-85
2021/01/08 02:14:41;;;;;;;10.10;5.00;;;;;;;;;;6223413;23;20031;-85
2021/01/08 02:17:07;;;;;;;11.02;5.30;;;;;;;;;;6237596;22;20017;-85
2021/01/08 02:19:37;;;;;;;10.27;5.53;;;;;;;;;;6233201;22;20029;-84
2021/01/08 02:22:05;;;;;;;11.73;6.88;;;;;;;;;;6220422;23;20028;-85
2021/01/08 02:24:38;;;;;;;10.57;6.07;;;;;;;;;;6222340;23;20410;-85
2021/01/08 02:27:04;;;;;;;11.35;6.07;;;;;;;;;;6219818;23;20028;-85
2021/01/08 02:29:33;;;;;;;12.43;5.63;;;;;;;;;;6222344;23;20028;-86
2021/01/08 02:31:59;;;;;;;7.57;5.05;;;;;;;;;;6221007;23;20083;-85
2021/01/08 02:34:29;;;;;;;10.50;5.90;;;;;;;;;;6218888;23;20451;-85
2021/01/08 02:36:56;;;;;;;9.38;6.13;;;;;;;;;;6219338;23;20445;-85
2021/01/08 02:39:32;;;;;;;9.18;5.90;;;;;;;;;;6219996;23;20035;-85
2021/01/08 02:41:58;;;;;;;8.82;5.05;;;;;;;;;;6220191;23;20318;-85
2021/01/08 02:44:24;;;;;;;10.70;5.88;;;;;;;;;;6218282;23;20276;-85
2021/01/08 02:46:50;;;;;;;9.32;5.57;;;;;;;;;;6220853;23;20123;-85
2021/01/08 02:49:17;;;;;;;10.02;6.00;;;;;;;;;;6221884;23;20025;-86
2021/01/08 02:51:43;;;;;;;8.90;5.80;;;;;;;;;;6226563;23;20079;-86
2021/01/08 02:54:10;;;;;;;9.93;5.30;;;;;;;;;;6222189;23;20099;-84
2021/01/08 02:56:39;;;;;;;8.95;5.43;;;;;;;;;;6222225;23;20025;-84
2021/01/08 02:59:06;;;;;;;9.13;5.55;;;;;;;;;;6221349;23;20024;-84
2021/01/08 03:01:33;;;;;;;9.57;5.68;;;;;;;;;;6221997;23;20065;-84
2021/01/08 03:04:00;;;;;;;9.32;5.40;;;;;;;;;;6222808;23;20029;-84
2021/01/08 03:06:39;;;;;;;9.07;5.68;;;;;;;;;;6222271;23;20040;-85
2021/01/08 03:09:06;;;;;;;9.68;5.47;;;;;;;;;;6221725;23;20024;-85
2021/01/08 03:11:39;;;;;;;7.18;5.22;;;;;;;;;;6222265;23;20036;-85
2021/01/08 03:14:08;;;;;;;9.63;5.50;;;;;;;;;;6222716;23;20097;-84
2021/01/08 03:16:36;;;;;;;9.52;5.68;;;;;;;;;;6221787;23;20024;-85
2021/01/08 03:19:02;;;;;;;9.40;6.03;;;;;;;;;;6221150;23;20043;-85
2021/01/08 03:21:32;;;;;;;8.88;5.93;;;;;;;;;;6220596;23;20024;-85
2021/01/08 03:23:59;;;;;;;10.52;6.13;;;;;;;;;;6220557;23;20024;-85
2021/01/08 03:26:30;;;;;;;10.10;6.63;;;;;;;;;;6219772;23;20059;-85
2021/01/08 03:29:00;;;;;;;8.13;5.40;;;;;;;;;;6228749;23;20341;-85
2021/01/08 03:31:30;;;;;;;9.60;6.20;;;;;;;;;;6235312;23;20029;-85
2021/01/08 03:33:58;;;;;;;9.05;5.65;;;;;;;;;;6235898;23;20035;-85
2021/01/08 03:36:24;;;;;;;8.82;5.63;;;;;;;;;;6229979;23;20036;-85
2021/01/08 03:38:54;;;;;;;9.30;5.95;;;;;;;;;;6223351;23;20024;-88
2021/01/08 03:41:20;;;;;;;9.07;6.20;;;;;;;;;;6221786;23;20051;-86
2021/01/08 03:43:46;;;;;;;10.27;6.53;;;;;;;;;;6222190;23;20024;-86
2021/01/08 03:46:24;;;;;;;9.75;6.53;;;;;;;;;;6223945;23;20029;-86
2021/01/08 03:48:50;;;;;;;8.57;6.05;;;;;;;;;;6222634;23;20224;-86
2021/01/08 03:51:17;;;;;;;9.02;6.18;;;;;;;;;;6225677;23;20029;-86
2021/01/08 03:53:45;;;;;;;9.05;6.22;;;;;;;;;;6223435;23;20042;-87
2021/01/08 03:56:12;;;;;;;10.48;5.57;;;;;;;;;;6229719;23;20037;-86
2021/01/08 03:58:42;;;;;;;9.60;6.35;;;;;;;;;;6238455;22;20040;-89
2021/01/08 04:01:09;;;;;;;8.93;6.30;;;;;;;;;;6238649;22;20058;-86
2021/01/08 04:03:41;;;;;;;9.85;6.18;;;;;;;;;;6237264;23;20052;-86
2021/01/08 04:06:11;;;;;;;9.43;6.43;;;;;;;;;;6237157;23;20064;-86
2021/01/08 04:08:45;;;;;;;11.30;6.07;;;;;;;;;;6227346;23;20025;-87
2021/01/08 04:11:12;;;;;;;9.70;6.75;;;;;;;;;;6223990;23;20257;-86
2021/01/08 04:13:38;;;;;;;10.93;6.60;;;;;;;;;;6221699;23;20025;-85
2021/01/08 04:16:07;;;;;;;10.23;6.82;;;;;;;;;;6219743;23;20024;-85
2021/01/08 04:18:39;;;;;;;8.85;6.32;;;;;;;;;;6223075;23;20024;-87
2021/01/08 04:21:06;;;;;;;8.85;6.10;;;;;;;;;;6221690;23;20028;-86
2021/01/08 04:23:35;;;;;;;9.98;6.47;;;;;;;;;;6222682;23;20024;-86
2021/01/08 04:26:06;;;;;;;9.95;6.22;;;;;;;;;;6221060;23;20079;-87
2021/01/08 04:28:32;;;;;;;9.00;6.15;;;;;;;;;;6222803;23;20020;-88
2021/01/08 04:30:58;;;;;;;10.85;7.00;;;;;;;;;;6223926;23;20029;-87
2021/01/08 04:33:24;;;;;;;9.27;6.60;;;;;;;;;;6224557;23;20300;-88
2021/01/08 04:35:53;;;;;;;9.13;6.53;;;;;;;;;;6224709;23;20036;-88
2021/01/08 04:38:19;;;;;;;9.98;6.35;;;;;;;;;;6224315;23;20048;-88
2021/01/08 04:40:45;;;;;;;10.52;6.60;;;;;;;;;;6228272;23;20032;-88
2021/01/08 04:43:12;;;;;;;10.20;6.70;;;;;;;;;;6227333;23;20016;-87
2021/01/08 04:45:39;;;;;;;9.82;6.28;;;;;;;;;;6202324;23;20025;-89
2021/01/08 04:48:07;;;;;;;10.63;7.28;;;;;;;;;;6203618;23;20028;-88
2021/01/08 04:50:34;;;;;;;10.25;7.13;;;;;;;;;;6228469;23;20038;-89
2021/01/08 04:53:04;;;;;;;9.93;6.80;;;;;;;;;;6225480;23;20084;-89
2021/01/08 04:55:34;;;;;;;10.57;7.13;;;;;;;;;;6227163;23;20029;-87
2021/01/08 04:58:01;;;;;;;11.68;7.10;;;;;;;;;;6223860;23;20025;-88
2021/01/08 05:00:40;;;;;;;11.18;7.68;;;;;;;;;;6199836;23;20025;-89
2021/01/08 05:03:07;;;;;;;11.52;7.32;;;;;;;;;;6202475;23;20034;-88
2021/01/08 05:05:34;;;;;;;13.85;7.13;;;;;;;;;;6226969;23;20028;-89
2021/01/08 05:08:00;;;;;;;10.70;7.07;;;;;;;;;;6206481;22;20058;-88
2021/01/08 05:10:26;;;;;;;13.63;8.27;;;;;;;;;;6238734;22;20016;-88
2021/01/08 05:12:52;;;;;;;11.50;7.60;;;;;;;;;;6213382;23;20036;-88
2021/01/08 05:15:23;;;;;;;12.15;8.23;;;;;;;;;;6239732;22;20048;-88
2021/01/08 05:17:50;;;;;;;10.95;7.50;;;;;;;;;;6238545;22;20016;-88
2021/01/08 05:20:16;;;;;;;24.70;8.63;;;;;;;;;;6233174;23;20056;-88
2021/01/08 05:22:44;;;;;;;14.25;9.07;;;;;;;;;;6229822;23;20076;-89
2021/01/08 05:25:10;;;;;;;13.65;8.85;;;;;;;;;;6206142;23;20017;-88
2021/01/08 05:28:02;;;;;;;10.93;8.00;;;;;;;;;;6239172;22;20023;-89
2021/01/08 05:30:28;;;;;;;13.93;8.65;;;;;;;;;;6236486;22;20046;-89
2021/01/08 05:32:59;;;;;;;14.60;8.70;;;;;;;;;;6211911;23;20076;-89
2021/01/08 05:35:25;;;;;;;12.48;8.25;;;;;;;;;;6210492;23;20161;-87
2021/01/08 05:37:53;;;;;;;12.73;7.95;;;;;;;;;;6231237;23;20409;-86
2021/01/08 05:40:26;;;;;;;14.00;7.95;;;;;;;;;;6233752;23;20013;-87
2021/01/08 05:42:56;;;;;;;12.85;8.48;;;;;;;;;;6234251;23;20048;-86
2021/01/08 05:45:22;;;;;;;12.98;8.18;;;;;;;;;;6208060;23;20081;-87
2021/01/08 05:47:49;;;;;;;16.85;9.02;;;;;;;;;;6231485;23;20028;-87
2021/01/08 05:50:18;;;;;;;16.55;9.18;;;;;;;;;;6227005;23;20052;-89
2021/01/08 05:52:44;;;;;;;14.93;8.02;;;;;;;;;;6198650;23;20029;-86
2021/01/08 05:55:13;;;;;;;12.35;7.85;;;;;;;;;;6222926;23;20028;-87
2021/01/08 05:57:50;;;;;;;13.55;8.35;;;;;;;;;;6225720;23;20025;-89
2021/01/08 06:00:17;;;;;;;11.73;7.65;;;;;;;;;;6226226;23;20025;-85
2021/01/08 06:02:43;;;;;;;14.55;7.78;;;;;;;;;;6195390;23;20028;-86
2021/01/08 06:05:13;;;;;;;13.55;7.70;;;;;;;;;;6223098;23;20048;-86
2021/01/08 06:07:42;;;;;;;11.77;7.15;;;;;;;;;;6221396;23;20048;-88
2021/01/08 06:10:12;;;;;;;15.48;8.40;;;;;;;;;;6197692;23;20036;-86
2021/01/08 06:12:40;;;;;;;16.00;8.80;;;;;;;;;;6194630;23;20072;-85
2021/01/08 06:15:06;;;;;;;14.13;8.23;;;;;;;;;;6219979;23;20035;-85
2021/01/08 06:17:51;;;;;;;13.30;7.53;;;;;;;;;;6219001;23;20042;-86
2021/01/08 06:20:18;;;;;;;13.35;7.50;;;;;;;;;;6191957;23;20083;-85
2021/01/08 06:22:45;;;;;;;13.70;7.95;;;;;;;;;;6192937;23;20024;-85
2021/01/08 06:25:14;;;;;;;14.75;8.45;;;;;;;;;;6193591;23;20024;-85
2021/01/08 06:27:44;;;;;;;13.25;8.27;;;;;;;;;;6222109;23;20039;-84
2021/01/08 06:30:19;;;;;;;16.10;8.68;;;;;;;;;;6218635;23;20111;-85
2021/01/08 06:33:08;;;;;;;13.50;8.13;;;;;;;;;;6196055;23;20278;-87
2021/01/08 06:35:35;;;;;;;13.32;7.53;;;;;;;;;;6224220;23;20029;-87
2021/01/08 06:38:10;;;;;;;14.95;7.75;;;;;;;;;;6217738;23;20366;-84
2021/01/08 06:40:48;;;;;;;17.40;7.88;;;;;;;;;;6192362;23;20016;-85
2021/01/08 06:43:23;;;;;;;12.73;7.45;;;;;;;;;;6208375;23;20029;-84
2021/01/08 06:45:52;;;;;;;13.52;8.07;;;;;;;;;;6234534;22;20036;-85
2021/01/08 06:48:23;;;;;;;13.15;7.90;;;;;;;;;;6235717;22;20059;-86
2021/01/08 06:50:51;;;;;;;14.38;8.43;;;;;;;;;;6234646;22;20036;-86
2021/01/08 06:53:18;;;;;;;15.70;8.73;;;;;;;;;;6233454;22;20016;-86
2021/01/08 06:55:45;;;;;;;16.13;8.98;;;;;;;;;;6220294;22;20039;-86
2021/01/08 06:58:17;;;;;;;14.30;8.35;;;;;;;;;;6217820;23;20025;-86
2021/01/08 07:00:47;;;;;;;15.25;8.52;;;;;;;;;;6215188;23;20024;-86
2021/01/08 07:03:17;;;;;;;14.68;8.88;;;;;;;;;;6215287;23;20298;-86
2021/01/08 07:05:45;;;;;;;16.55;9.40;;;;;;;;;;6217081;23;20052;-85
2021/01/08 07:08:12;;;;;;;15.10;8.93;;;;;;;;;;6216403;23;20033;-85
2021/01/08 07:10:40;;;;;;;15.57;8.68;;;;;;;;;;6229713;23;20437;-86
2021/01/08 07:13:09;;;;;;;14.32;8.93;;;;;;;;;;6219641;23;20024;-85
2021/01/08 07:15:35;;;;;;;14.60;8.43;;;;;;;;;;6221187;23;20032;-85
2021/01/08 07:18:13;;;;;;;17.85;9.73;;;;;;;;;;6221426;23;20071;-85
2021/01/08 07:20:50;;;;;;;17.95;10.05;;;;;;;;;;6220267;23;20025;-86
2021/01/08 07:23:37;;;;;;;16.27;9.18;;;;;;;;;;6224396;23;20028;-86
2021/01/08 07:26:04;;;;;;;15.38;9.65;;;;;;;;;;6224757;23;20029;-86
2021/01/08 07:28:31;;;;;;;19.75;10.57;;;;;;;;;;6223725;23;20039;-86
2021/01/08 07:31:16;;;;;;;18.17;10.23;;;;;;;;;;6223765;23;20044;-86
2021/01/08 07:33:47;;;;;;;19.63;10.82;;;;;;;;;;6223075;23;20115;-87
2021/01/08 07:36:22;;;;;;;17.17;10.57;;;;;;;;;;6222646;23;20545;-86
2021/01/08 07:38:48;;;;;;;17.60;10.18;;;;;;;;;;6224855;23;20035;-86
2021/01/08 07:41:34;;;;;;;19.00;10.48;;;;;;;;;;6227165;23;20548;-87
2021/01/08 07:44:02;;;;;;;19.17;11.35;;;;;;;;;;6224960;23;20351;-86
2021/01/08 07:46:33;;;;;;;22.15;11.75;;;;;;;;;;6199735;23;20012;-86
2021/01/08 07:49:01;;;;;;;20.83;11.55;;;;;;;;;;6198697;23;20039;-88
2021/01/08 07:51:45;;;;;;;22.25;12.02;;;;;;;;;;6199671;23;20086;-85
2021/01/08 07:54:13;;;;;;;24.50;12.00;;;;;;;;;;6209712;23;20027;-84
2021/01/08 07:56:59;;;;;;;21.45;11.70;;;;;;;;;;6210241;23;20012;-85
2021/01/08 07:59:31;;;;;;;21.65;11.30;;;;;;;;;;6237223;22;20032;-85
2021/01/08 08:02:00;;;;;;;19.73;11.00;;;;;;;;;;6234559;23;20016;-84
2021/01/08 08:04:29;;;;;;;19.55;10.95;;;;;;;;;;6203094;23;20035;-85
2021/01/08 08:06:56;;;;;;;22.88;12.02;;;;;;;;;;6235977;22;20242;-85
2021/01/08 08:09:23;;;;;;;18.42;10.20;;;;;;;;;;6202041;23;20071;-85
2021/01/08 08:11:49;;;;;;;22.83;11.40;;;;;;;;;;6196799;23;20059;-86
2021/01/08 08:14:20;;;;;;;26.48;11.82;;;;;;;;;;6199163;23;20202;-86
2021/01/08 08:16:56;;;;;;;21.23;11.15;;;;;;;;;;6201400;23;20115;-87
2021/01/08 08:19:31;;;;;;;20.63;11.15;;;;;;;;;;6226938;23;20025;-87
2021/01/08 08:22:12;;;;;;;21.40;11.70;;;;;;;;;;6226582;23;20032;-88
2021/01/08 08:24:43;;;;;;;20.38;10.48;;;;;;;;;;6200377;23;20028;-87
2021/01/08 08:27:15;;;;;;;18.33;10.55;;;;;;;;;;6198722;23;20025;-87
2021/01/08 08:29:49;;;;;;;19.98;10.45;;;;;;;;;;6198885;23;20421;-86
2021/01/08 08:32:21;;;;;;;20.88;10.80;;;;;;;;;;6197393;23;20100;-86
2021/01/08 08:34:59;;;;;;;21.05;11.30;;;;;;;;;;6203873;23;20257;-87
2021/01/08 08:37:26;;;;;;;20.38;10.20;;;;;;;;;;6227082;23;20024;-88
2021/01/08 08:39:59;;;;;;;19.50;10.65;;;;;;;;;;6208286;23;20091;-88
2021/01/08 08:42:26;;;;;;;24.98;11.43;;;;;;;;;;6234008;23;20032;-88
2021/01/08 08:44:53;;;;;;;23.88;11.93;;;;;;;;;;6209032;23;20051;-88
2021/01/08 08:47:23;;;;;;;20.85;10.98;;;;;;;;;;6226399;23;20116;-88
2021/01/08 08:50:11;;;;;;;22.85;10.40;;;;;;;;;;6231836;22;20024;-88
2021/01/08 08:52:56;;;;;;;20.15;10.63;;;;;;;;;;6211334;22;20012;-87
2021/01/08 08:55:41;;;;;;;19.70;10.02;;;;;;;;;;6208519;23;20036;-88
2021/01/08 08:58:10;;;;;;;17.92;9.20;;;;;;;;;;6222895;23;20306;-88
2021/01/08 09:00:42;;;;;;;27.27;12.75;;;;;;;;;;6200063;23;20034;-88
2021/01/08 10:04:28;;;;;;;;;;;;;;;;;;;;;
2021/01/08 10:11:00;;;;;;;;;;;;;;;;;;;;;
2021/01/08 10:13:40;;;;;;;26.67;14.65;;;;;;;;;;6095228;23;20070;-87
2021/01/08 10:16:37;;;;;;;35.03;15.82;;;;;;;;;;6074928;23;20428;-87
2021/01/08 10:19:50;;;;;;;30.60;16.25;;;;;;;;;;6095505;23;20373;-87
2021/01/08 10:30:13;;;;;;;30.63;16.30;;;;;;;;;;6015491;23;20044;-89
2021/01/08 10:43:12;;;;;;;29.30;16.25;;;;;;;;;;5819984;24;20023;-87
2021/01/08 10:45:38;;;;;;;30.30;17.42;;;;;;;;;;5866460;24;20089;-87
2021/01/08 10:48:31;;;;;;;31.33;16.90;;;;;;;;;;5993308;23;20392;-85
2021/01/08 10:50:58;;;;;;;29.98;15.88;;;;;;;;;;6013679;23;20073;-87
2021/01/08 10:53:25;;;;;;;28.00;15.05;;;;;;;;;;6044200;23;20027;-85
2021/01/08 10:55:54;;;;;;;24.50;13.80;;;;;;;;;;6059539;23;20333;-87
2021/01/08 10:58:21;;;;;;;26.50;12.82;;;;;;;;;;6077783;23;20094;-86
2021/01/08 11:00:48;;;;;;;92.93;15.98;;;;;;;;;;6101777;23;20041;-86
2021/01/08 11:03:31;;;;;;;;;;;;;;;;;;;;;
2021/01/08 11:06:04;;;;;;;19.67;10.98;;;;;;;;;;6112654;23;20026;-86
2021/01/08 11:08:34;;;;;;;17.80;11.10;;;;;;;;;;6104982;23;20031;-84
2021/01/08 11:11:13;;;;;;;21.08;10.38;;;;;;;;;;6101378;23;20197;-86
2021/01/08 11:13:41;;;;;;;19.98;11.35;;;;;;;;;;6078863;23;20351;-86
2021/01/08 11:16:09;;;;;;;16.85;10.05;;;;;;;;;;6116501;23;20026;-86
2021/01/08 11:18:36;;;;;;;15.80;9.57;;;;;;;;;;6222758;23;20192;-85
2021/01/08 11:21:03;;;;;;;17.55;10.63;;;;;;;;;;6222535;23;20032;-86
2021/01/08 11:23:30;;;;;;;15.77;9.60;;;;;;;;;;6201000;23;20024;-87
2021/01/08 11:25:58;;;;;;;16.70;10.20;;;;;;;;;;6197428;23;20025;-88
2021/01/08 11:28:24;;;;;;;16.02;9.07;;;;;;;;;;6221718;23;20032;-86
2021/01/08 11:30:51;;;;;;;16.60;9.70;;;;;;;;;;6194505;23;20038;-85
2021/01/08 11:33:18;;;;;;;18.80;10.07;;;;;;;;;;6220863;23;20051;-85
2021/01/08 11:35:48;;;;;;;15.93;9.93;;;;;;;;;;6194955;23;20076;-86
2021/01/08 11:38:14;;;;;;;18.42;10.02;;;;;;;;;;6218622;23;20025;-85
2021/01/08 11:40:41;;;;;;;16.75;10.65;;;;;;;;;;6220131;23;20025;-84
2021/01/08 11:43:08;;;;;;;17.50;10.10;;;;;;;;;;6194891;23;20359;-86
2021/01/08 11:45:34;;;;;;;18.15;10.25;;;;;;;;;;6222647;23;20218;-85
2021/01/08 11:48:01;;;;;;;16.63;10.35;;;;;;;;;;6216963;23;20032;-85
2021/01/08 11:50:28;;;;;;;17.02;10.75;;;;;;;;;;6194712;23;20028;-85
2021/01/08 11:52:54;;;;;;;18.75;10.45;;;;;;;;;;6216989;23;20025;-84
2021/01/08 11:55:21;;;;;;;18.75;11.10;;;;;;;;;;6214899;23;20025;-85
2021/01/08 11:57:47;;;;;;;18.77;11.02;;;;;;;;;;6194730;23;20388;-85
2021/01/08 12:00:14;;;;;;;19.13;10.98;;;;;;;;;;6221178;23;20048;-85
2021/01/08 12:02:42;;;;;;;18.60;10.55;;;;;;;;;;6192980;23;20359;-85
2021/01/08 12:05:10;;;;;;;17.67;11.80;;;;;;;;;;6194889;23;20346;-85
2021/01/08 12:07:43;;;;;;;46.83;29.98;;;;;;;;;;6196970;23;20029;-85
2021/01/08 12:10:10;;;;;;;20.52;13.35;;;;;;;;;;6196000;23;20024;-85
2021/01/08 12:12:37;;;;;;;16.88;11.80;;;;;;;;;;6197095;23;20056;-85
2021/01/08 12:15:07;;;;;;;18.55;11.75;;;;;;;;;;6207374;23;20307;-84
2021/01/08 12:17:34;;;;;;;13.73;9.05;;;;;;;;;;6235102;23;20093;-84
2021/01/08 12:20:01;;;;;;;14.38;9.23;;;;;;;;;;6209576;23;20032;-85
2021/01/08 12:22:28;;;;;;;17.88;10.93;;;;;;;;;;6208662;23;20040;-86
2021/01/08 12:25:01;;;;;;;16.75;10.23;;;;;;;;;;6206245;23;20083;-85
2021/01/08 12:27:30;;;;;;;;;;;;;;;;;;6207845;23;20020;-85
2021/01/08 12:29:56;;;;;;;19.33;10.48;;;;;;;;;;6207159;23;20000;-85
2021/01/08 12:32:22;;;;;;;19.30;11.00;;;;;;;;;;6227455;23;20079;-85
2021/01/08 12:34:52;;;;;;;20.08;12.30;;;;;;;;;;6219594;23;20026;-86
2021/01/08 12:37:19;;;;;;;19.05;11.63;;;;;;;;;;6223600;23;20036;-86
2021/01/08 12:39:46;;;;;;;19.92;11.65;;;;;;;;;;6203930;23;20028;-86
2021/01/08 12:42:12;;;;;;;24.35;12.45;;;;;;;;;;6234467;23;20041;-86
2021/01/08 12:44:42;;;;;;;22.23;11.70;;;;;;;;;;6197213;23;20499;-86
2021/01/08 12:47:11;;;;;;;19.65;11.30;;;;;;;;;;6199755;23;20056;-87
2021/01/08 12:49:38;;;;;;;18.08;10.95;;;;;;;;;;6194604;23;20052;-86
2021/01/08 12:52:05;;;;;;;18.85;11.82;;;;;;;;;;6196928;23;20234;-88
2021/01/08 12:54:32;;;;;;;16.88;11.55;;;;;;;;;;6221165;23;20382;-87
2021/01/08 12:57:01;;;;;;;18.33;11.35;;;;;;;;;;6195689;23;20064;-86
2021/01/08 12:59:29;;;;;;;20.63;11.48;;;;;;;;;;6166277;23;20318;-87
2021/01/08 13:01:57;;;;;;;21.65;11.85;;;;;;;;;;6193211;23;20144;-87
2021/01/08 13:04:23;;;;;;;22.33;13.45;;;;;;;;;;6189806;23;20036;-87
2021/01/08 13:06:50;;;;;;;22.38;12.85;;;;;;;;;;6167999;23;20329;-87
2021/01/08 13:09:17;;;;;;;22.13;13.93;;;;;;;;;;6165494;23;20049;-87
2021/01/08 13:11:43;;;;;;;21.15;12.48;;;;;;;;;;6192363;23;20143;-87
2021/01/08 13:14:09;;;;;;;22.23;12.43;;;;;;;;;;6192006;23;20033;-86
2021/01/08 13:16:38;;;;;;;18.77;11.77;;;;;;;;;;6167864;23;20044;-87
2021/01/08 13:19:09;;;;;;;20.10;12.13;;;;;;;;;;6162917;23;20356;-87
2021/01/08 13:21:36;;;;;;;21.65;12.50;;;;;;;;;;6185752;23;20040;-86
2021/01/08 13:24:02;;;;;;;21.10;12.95;;;;;;;;;;6163380;23;20029;-87
2021/01/08 13:26:29;;;;;;;21.98;12.60;;;;;;;;;;6162119;23;20224;-87
2021/01/08 13:28:58;;;;;;;19.33;10.82;;;;;;;;;;6190236;23;20301;-87
2021/01/08 13:31:25;;;;;;;20.15;12.73;;;;;;;;;;6166513;23;20079;-86
2021/01/08 13:33:56;;;;;;;22.83;12.48;;;;;;;;;;6163571;23;20040;-86
2021/01/08 13:36:23;;;;;;;22.40;13.82;;;;;;;;;;6162692;23;20017;-86
2021/01/08 13:38:50;;;;;;;18.92;11.00;;;;;;;;;;6161752;23;20076;-86
2021/01/08 13:41:17;;;;;;;18.73;11.63;;;;;;;;;;6189271;23;20072;-87
2021/01/08 13:43:44;;;;;;;18.55;11.55;;;;;;;;;;6165262;23;20036;-87
2021/01/08 13:46:18;;;;;;;20.20;12.43;;;;;;;;;;6166625;23;20032;-87
2021/01/08 13:48:48;;;;;;;22.58;12.15;;;;;;;;;;6166639;23;20029;-86
2021/01/08 13:54:26;;;;;;;;;;;;;;;;;;6204786;23;20034;-87
2021/01/08 14:15:15;;;;;;;;;;;;;;;;;;;;;
2021/01/08 14:46:22;;;;;;;;;;;;;;;;;;;;;
2021/01/08 15:00:12;;;;;;;;;;;;;;;;;;;;;
2021/01/08 15:58:20;;;;;;;18.70;10.23;;;;;;;;;;5976634;23;20034;-87
2021/01/08 16:01:07;;;;;;;16.27;9.40;;;;;;;;;;5926591;24;20092;-87
2021/01/08 16:04:31;;;;;;;16.70;10.02;;;;;;;;;;5935799;24;20036;-87
2021/01/08 16:07:23;;;;;;;17.52;9.45;;;;;;;;;;5939182;24;20146;-88
2021/01/08 16:09:56;;;;;;;17.35;8.45;;;;;;;;;;5940016;24;20021;-87
2021/01/08 16:12:46;;;;;;;13.95;8.63;;;;;;;;;;6021348;23;20031;-87
2021/01/08 16:15:21;;;;;;;15.85;8.40;;;;;;;;;;6105931;23;20025;-87
2021/01/08 16:17:57;;;;;;;13.45;7.60;;;;;;;;;;6110904;23;20034;-87
2021/01/08 16:20:27;;;;;;;15.20;8.40;;;;;;;;;;6110424;23;20137;-87
2021/01/08 16:22:59;;;;;;;13.40;7.55;;;;;;;;;;6109471;23;20027;-87
2021/01/08 16:25:35;;;;;;;13.45;8.25;;;;;;;;;;6109321;23;20045;-87
2021/01/08 16:28:03;;;;;;;11.00;6.78;;;;;;;;;;6108756;23;20086;-87
2021/01/08 16:30:49;;;;;;;10.88;7.15;;;;;;;;;;6109680;23;20030;-87
2021/01/08 16:33:31;;;;;;;10.73;6.63;;;;;;;;;;6108956;23;20018;-87
2021/01/08 16:35:59;;;;;;;12.10;7.88;;;;;;;;;;6108074;23;20032;-87
2021/01/08 16:38:30;;;;;;;12.15;7.40;;;;;;;;;;6167641;23;20145;-86
2021/01/08 16:41:09;;;;;;;10.63;7.35;;;;;;;;;;6208144;22;20039;-88
2021/01/08 16:43:40;;;;;;;16.42;8.38;;;;;;;;;;6205687;22;20025;-88
2021/01/08 16:46:20;;;;;;;15.13;8.40;;;;;;;;;;6208816;23;20102;-87
2021/01/08 16:48:58;;;;;;;12.57;7.72;;;;;;;;;;6207509;23;20080;-87
2021/01/08 16:51:54;;;;;;;11.77;7.32;;;;;;;;;;6230763;23;20068;-87
2021/01/08 16:54:25;;;;;;;14.82;7.28;;;;;;;;;;6232440;22;20072;-87
2021/01/08 16:56:53;;;;;;;14.73;7.93;;;;;;;;;;6207774;23;20100;-87
2021/01/08 16:59:31;;;;;;;13.35;7.97;;;;;;;;;;6210952;23;20095;-88
2021/01/08 17:01:59;;;;;;;13.90;7.50;;;;;;;;;;6205681;23;20028;-88
2021/01/08 17:04:34;;;;;;;9.82;7.05;;;;;;;;;;6202882;23;20084;-86
2021/01/08 17:07:05;;;;;;;12.32;7.85;;;;;;;;;;6197199;23;20083;-87
2021/01/08 17:09:46;;;;;;;12.55;6.70;;;;;;;;;;6197608;23;20410;-87
2021/01/08 17:12:15;;;;;;;18.75;7.18;;;;;;;;;;6196476;23;20060;-87
2021/01/08 17:15:22;;;;;;;12.07;7.50;;;;;;;;;;6199785;23;20025;-86
2021/01/08 17:17:55;;;;;;;12.35;7.13;;;;;;;;;;6220118;23;20024;-87
2021/01/08 17:20:25;;;;;;;13.32;7.55;;;;;;;;;;6195902;23;20094;-87
2021/01/08 17:22:53;;;;;;;15.15;7.30;;;;;;;;;;6194353;23;20028;-87
2021/01/08 17:25:29;;;;;;;;;;;;;;;;;;6197746;23;20025;-87
2021/01/08 17:27:56;;;;;;;12.70;7.80;;;;;;;;;;6192872;23;19916;-86
2021/01/08 17:30:34;;;;;;;16.70;7.75;;;;;;;;;;6192098;23;20029;-86
2021/01/08 17:33:04;;;;;;;14.38;8.00;;;;;;;;;;6191608;23;20052;-86
2021/01/08 17:35:31;;;;;;;15.13;8.23;;;;;;;;;;6191899;23;20028;-87
2021/01/08 17:38:16;;;;;;;15.80;8.18;;;;;;;;;;6192712;23;20025;-87
2021/01/08 17:40:59;;;;;;;12.25;7.25;;;;;;;;;;6194445;23;20367;-86
2021/01/08 17:43:48;;;;;;;13.82;7.88;;;;;;;;;;6217923;23;20045;-86
2021/01/08 17:46:22;;;;;;;12.15;7.20;;;;;;;;;;6195908;22;20016;-87
2021/01/08 17:48:51;;;;;;;11.82;7.07;;;;;;;;;;6206149;23;20119;-87
2021/01/08 17:51:18;;;;;;;12.18;7.80;;;;;;;;;;6206633;22;20043;-86
2021/01/08 17:54:03;;;;;;;14.23;7.18;;;;;;;;;;6211134;23;20048;-88
2021/01/08 17:56:31;;;;;;;10.75;6.55;;;;;;;;;;6229679;23;20029;-88
2021/01/08 17:58:59;;;;;;;16.77;7.90;;;;;;;;;;6201868;23;20406;-87
2021/01/08 18:01:30;;;;;;;15.05;7.93;;;;;;;;;;6195448;23;20028;-87
2021/01/08 18:04:02;;;;;;;15.10;8.48;;;;;;;;;;6199462;23;20024;-87
2021/01/08 18:07:04;;;;;;;17.25;8.52;;;;;;;;;;6197151;23;20016;-87
2021/01/08 18:09:31;;;;;;;14.52;7.88;;;;;;;;;;6192757;23;20032;-87
2021/01/08 18:12:03;;;;;;;15.85;8.57;;;;;;;;;;6194988;23;20255;-88
2021/01/08 18:14:31;;;;;;;20.50;9.07;;;;;;;;;;6193875;23;20038;-87
2021/01/08 18:17:12;;;;;;;19.30;8.95;;;;;;;;;;6197112;23;20024;-87